Time;durP1;ratioP1;P1;durP2;ratioP2;P2;SDS_P1;SDS_P2;PMS_P1;PMS_P2;Temp;Humidity;BMP_temperature;BMP_pressure;BME280_temperature;BME280_humidity;BME280_pressure;Samples;Min_cycle;Max_cycle;Signal;HPM_P1;HPM_P2
2022/10/30 00:01:39;;;;;;;10.65;5.78;;;23.70;62.90;;;;;;5022163;28;20121;-68
2022/10/30 00:04:05;;;;;;;8.18;4.57;;;23.70;62.90;;;;;;5030828;28;20049;-68
2022/10/30 00:06:31;;;;;;;9.18;4.63;;;23.70;63.10;;;;;;5036177;28;20033;-69
2022/10/30 00:08:57;;;;;;;6.65;5.25;;;23.70;63.10;;;;;;5049130;28;20654;-68
2022/10/30 00:11:23;;;;;;;9.48;5.38;;;23.60;63.00;;;;;;5040783;28;20049;-68
2022/10/30 00:13:49;;;;;;;9.98;5.20;;;23.60;63.00;;;;;;5035495;28;20431;-68
2022/10/30 00:16:15;;;;;;;11.80;5.60;;;23.50;63.10;;;;;;5030739;28;20136;-68
2022/10/30 00:18:42;;;;;;;7.70;5.20;;;23.50;63.20;;;;;;5034980;28;20040;-68
2022/10/30 00:21:14;;;;;;;7.90;4.85;;;23.50;63.20;;;;;;5032558;28;20041;-68
2022/10/30 00:23:52;;;;;;;8.25;5.68;;;23.50;63.20;;;;;;5051784;28;20039;-68
2022/10/30 00:26:20;;;;;;;7.80;5.38;;;23.40;63.10;;;;;;5046407;28;20061;-68
2022/10/30 00:28:50;;;;;;;11.95;5.95;;;23.50;63.20;;;;;;5045884;28;20033;-68
2022/10/30 00:31:17;;;;;;;10.63;5.15;;;23.50;63.20;;;;;;5044100;28;20043;-68
2022/10/30 00:33:43;;;;;;;11.65;5.75;;;23.60;63.20;;;;;;5034923;28;20053;-68
2022/10/30 00:36:09;;;;;;;7.35;5.03;;;23.70;63.20;;;;;;5035099;28;20071;-68
2022/10/30 00:38:35;;;;;;;10.68;5.70;;;23.60;63.00;;;;;;5052976;28;20086;-68
2022/10/30 00:41:01;;;;;;;6.40;4.47;;;23.50;63.00;;;;;;5046448;28;20037;-68
2022/10/30 00:43:38;;;;;;;12.10;5.15;;;23.60;62.90;;;;;;5049883;28;20420;-68
2022/10/30 00:46:28;;;;;;;12.98;5.63;;;23.70;63.00;;;;;;5043229;28;20500;-68
2022/10/30 00:48:58;;;;;;;8.80;5.20;;;23.60;62.80;;;;;;5036765;28;20045;-68
2022/10/30 00:51:26;;;;;;;8.77;5.40;;;23.60;62.90;;;;;;5050532;28;20104;-68
2022/10/30 00:53:55;;;;;;;10.20;5.10;;;23.60;63.00;;;;;;5048168;28;20040;-68
2022/10/30 00:56:22;;;;;;;11.07;6.07;;;23.60;63.10;;;;;;5048893;28;20098;-68
2022/10/30 00:58:54;;;;;;;7.68;5.20;;;23.50;63.10;;;;;;5050413;28;20029;-68
2022/10/30 01:01:24;;;;;;;10.90;5.50;;;23.50;63.20;;;;;;5041599;28;20037;-68
2022/10/30 01:03:55;;;;;;;12.18;5.38;;;23.40;63.10;;;;;;5032798;28;20071;-68
2022/10/30 01:06:22;;;;;;;7.45;4.85;;;23.40;63.10;;;;;;5032750;28;20426;-68
2022/10/30 01:08:49;;;;;;;14.48;6.15;;;23.30;63.10;;;;;;5049956;28;20075;-68
2022/10/30 01:11:15;;;;;;;7.60;4.95;;;23.30;63.20;;;;;;5032417;28;20389;-68
2022/10/30 01:13:45;;;;;;;11.07;6.40;;;23.40;63.20;;;;;;5050651;28;20032;-69
2022/10/30 01:16:35;;;;;;;8.68;6.10;;;23.20;63.10;;;;;;5042506;28;20037;-68
2022/10/30 01:19:47;;;;;;;8.48;5.35;;;23.40;63.20;;;;;;5031589;28;20069;-68
2022/10/30 01:22:39;;;;;;;9.75;5.55;;;23.40;63.30;;;;;;5044478;28;20045;-68
2022/10/30 01:25:27;;;;;;;10.20;6.07;;;23.30;63.20;;;;;;5031388;28;20029;-69
2022/10/30 01:28:12;;;;;;;14.40;5.70;;;23.40;63.10;;;;;;5039695;28;20113;-69
2022/10/30 01:30:44;;;;;;;10.90;6.07;;;23.30;63.00;;;;;;5042288;28;20041;-68
2022/10/30 01:33:23;;;;;;;;;;;23.40;63.00;;;;;;5012615;28;20076;-68
2022/10/30 01:36:11;;;;;;;9.20;5.18;;;23.30;62.90;;;;;;5033608;28;19963;-69
2022/10/30 01:38:43;;;;;;;11.68;5.93;;;23.40;63.00;;;;;;5048104;28;20032;-68
2022/10/30 01:41:09;;;;;;;11.52;6.75;;;23.40;63.00;;;;;;5063224;28;20108;-68
2022/10/30 01:43:36;;;;;;;10.13;6.05;;;23.40;63.00;;;;;;5030836;28;20072;-68
2022/10/30 01:46:29;;;;;;;11.93;5.38;;;23.40;62.90;;;;;;5029697;28;20548;-68
2022/10/30 01:49:32;;;;;;;8.50;5.63;;;23.40;62.90;;;;;;5051460;28;20061;-68
2022/10/30 01:52:13;;;;;;;9.75;5.57;;;23.40;62.90;;;;;;5035543;28;20382;-68
2022/10/30 01:55:11;;;;;;;8.55;5.78;;;23.40;62.90;;;;;;5029129;28;20045;-69
2022/10/30 01:57:46;;;;;;;13.55;6.25;;;23.30;62.90;;;;;;5043205;28;20041;-68
2022/10/30 02:00:15;;;;;;;10.50;5.95;;;23.30;62.90;;;;;;5047260;28;20684;-68
2022/10/30 02:02:47;;;;;;;8.50;5.80;;;23.30;63.00;;;;;;5064584;28;20037;-68
2022/10/30 02:05:28;;;;;;;10.52;6.07;;;23.20;62.90;;;;;;5050621;28;20056;-68
2022/10/30 02:07:54;;;;;;;12.15;6.45;;;23.20;62.90;;;;;;5030261;28;20505;-68
2022/10/30 02:10:20;;;;;;;7.85;5.50;;;23.30;63.10;;;;;;5029727;28;20041;-68
2022/10/30 02:12:48;;;;;;;12.00;5.45;;;23.20;63.10;;;;;;5039498;28;20188;-69
2022/10/30 02:15:15;;;;;;;15.07;6.25;;;23.10;63.10;;;;;;5044437;28;20029;-69
2022/10/30 02:17:41;;;;;;;10.10;5.60;;;23.10;63.10;;;;;;5029335;28;20498;-68
2022/10/30 02:20:14;;;;;;;9.00;5.57;;;23.10;63.20;;;;;;5029694;28;20151;-69
2022/10/30 02:22:40;;;;;;;;;;;23.10;63.30;;;;;;5050500;28;20479;-68
2022/10/30 02:25:07;;;;;;;8.32;5.68;;;23.10;63.30;;;;;;5048455;28;20042;-69
2022/10/30 02:27:33;;;;;;;13.63;6.00;;;23.10;63.20;;;;;;5056312;28;20036;-68
2022/10/30 02:29:59;;;;;;;17.85;6.03;;;23.20;63.20;;;;;;5034593;28;20037;-68
2022/10/30 02:32:26;;;;;;;9.85;5.38;;;23.20;63.10;;;;;;5048705;28;20052;-68
2022/10/30 02:34:52;;;;;;;10.60;5.30;;;23.30;63.20;;;;;;5052146;28;20033;-68
2022/10/30 02:37:18;;;;;;;10.80;5.88;;;23.10;63.10;;;;;;5048474;28;20058;-68
2022/10/30 02:39:44;;;;;;;9.65;5.25;;;23.10;63.00;;;;;;5051173;28;20035;-68
2022/10/30 02:42:10;;;;;;;11.65;6.18;;;23.10;63.00;;;;;;5042225;28;20032;-68
2022/10/30 02:44:36;;;;;;;11.65;5.80;;;23.30;63.10;;;;;;5031889;28;20697;-68
2022/10/30 02:47:02;;;;;;;11.65;5.60;;;23.20;62.90;;;;;;5045161;28;20041;-68
2022/10/30 02:49:28;;;;;;;12.05;6.50;;;23.20;62.80;;;;;;5035071;28;20056;-68
2022/10/30 02:51:54;;;;;;;14.13;5.10;;;23.20;62.80;;;;;;5041588;28;20126;-68
2022/10/30 02:54:20;;;;;;;13.57;5.32;;;23.20;62.80;;;;;;5049805;28;20099;-68
2022/10/30 02:56:47;;;;;;;15.32;5.82;;;23.10;62.80;;;;;;5011506;28;20698;-68
2022/10/30 02:59:13;;;;;;;12.18;5.45;;;23.10;62.80;;;;;;5023806;28;20133;-68
2022/10/30 03:01:39;;;;;;;11.32;5.75;;;23.10;62.90;;;;;;4969404;28;20197;-68
2022/10/30 03:04:05;;;;;;;10.73;6.38;;;23.10;62.90;;;;;;4988652;28;20555;-68
2022/10/30 03:06:32;;;;;;;12.07;6.63;;;23.10;62.90;;;;;;4971446;28;20419;-69
2022/10/30 03:08:58;;;;;;;10.82;5.75;;;23.10;62.90;;;;;;4989732;28;20145;-68
2022/10/30 03:11:24;;;;;;;12.18;6.25;;;23.00;62.70;;;;;;4989108;28;20121;-68
2022/10/30 03:13:53;;;;;;;11.02;5.93;;;23.10;62.90;;;;;;4971025;28;20034;-68
2022/10/30 03:16:25;;;;;;;11.90;5.35;;;23.10;62.90;;;;;;4987190;28;20058;-69
2022/10/30 03:18:51;;;;;;;9.52;6.45;;;23.10;62.90;;;;;;4989669;28;20070;-68
2022/10/30 03:21:21;;;;;;;8.63;6.20;;;23.00;62.90;;;;;;4988674;28;20046;-68
2022/10/30 03:23:49;;;;;;;9.32;6.13;;;23.00;63.00;;;;;;4989540;28;20142;-68
2022/10/30 03:26:15;;;;;;;11.10;5.57;;;23.00;62.90;;;;;;4973169;28;20046;-68
2022/10/30 03:28:48;;;;;;;8.60;5.82;;;23.10;63.00;;;;;;4987311;28;20087;-68
2022/10/30 03:31:17;;;;;;;10.52;5.80;;;23.00;62.90;;;;;;5004007;28;20126;-68
2022/10/30 03:33:44;;;;;;;14.02;6.28;;;23.00;62.80;;;;;;5028616;28;20041;-68
2022/10/30 03:36:13;;;;;;;11.18;6.22;;;23.00;62.80;;;;;;5027109;28;20033;-69
2022/10/30 03:38:39;;;;;;;13.35;6.40;;;23.00;62.70;;;;;;5040173;28;20037;-68
2022/10/30 03:41:06;;;;;;;14.50;6.15;;;23.00;62.70;;;;;;5029433;28;20040;-68
2022/10/30 03:43:32;;;;;;;10.77;5.55;;;23.00;62.60;;;;;;5041070;28;20102;-68
2022/10/30 03:45:58;;;;;;;11.35;5.68;;;23.10;62.80;;;;;;5032282;28;20025;-68
2022/10/30 03:48:26;;;;;;;10.85;5.75;;;23.10;62.70;;;;;;5028818;28;20057;-68
2022/10/30 03:50:56;;;;;;;8.80;5.93;;;23.10;62.80;;;;;;5017186;28;20033;-68
2022/10/30 03:53:25;;;;;;;15.45;6.00;;;23.10;62.70;;;;;;5050354;28;20055;-69
2022/10/30 03:56:02;;;;;;;10.27;5.63;;;23.00;62.70;;;;;;5033137;28;20441;-69
2022/10/30 03:58:36;;;;;;;15.50;6.07;;;23.00;62.60;;;;;;5041858;28;20037;-69
2022/10/30 04:01:06;;;;;;;12.05;5.90;;;23.10;62.80;;;;;;5038158;28;20058;-68
2022/10/30 04:03:36;;;;;;;10.95;5.85;;;23.00;62.70;;;;;;5028467;28;20076;-68
2022/10/30 04:06:02;;;;;;;12.30;7.03;;;23.00;62.70;;;;;;5031711;28;20048;-69
2022/10/30 04:08:28;;;;;;;12.15;6.00;;;23.00;62.70;;;;;;5049295;28;20086;-69
2022/10/30 04:10:54;;;;;;;8.98;5.93;;;22.90;62.80;;;;;;5049476;28;20041;-68
2022/10/30 04:13:21;;;;;;;12.82;6.50;;;22.90;62.80;;;;;;5021549;28;20033;-69
2022/10/30 04:15:51;;;;;;;10.30;7.10;;;22.90;62.70;;;;;;5043392;28;20108;-68
2022/10/30 04:18:19;;;;;;;9.43;6.03;;;22.90;62.80;;;;;;5049595;28;20340;-68
2022/10/30 04:20:46;;;;;;;8.80;6.32;;;22.80;62.80;;;;;;5044651;28;20056;-68
2022/10/30 04:23:16;;;;;;;11.63;6.60;;;22.90;62.90;;;;;;5048091;28;20037;-69
2022/10/30 04:25:43;;;;;;;9.82;5.38;;;22.80;62.90;;;;;;5049604;28;20036;-68
2022/10/30 04:28:10;;;;;;;12.50;6.38;;;22.80;62.70;;;;;;5043416;28;20041;-68
2022/10/30 04:30:38;;;;;;;13.32;6.65;;;22.90;62.90;;;;;;5041729;28;20030;-68
2022/10/30 04:33:07;;;;;;;12.95;6.85;;;22.80;62.70;;;;;;5030910;28;20048;-68
2022/10/30 04:35:37;;;;;;;11.25;6.57;;;22.90;62.70;;;;;;5035586;28;20124;-68
2022/10/30 04:38:10;;;;;;;10.85;6.65;;;22.90;62.60;;;;;;5049593;28;20104;-69
2022/10/30 04:40:39;;;;;;;11.25;5.72;;;23.00;62.60;;;;;;5037377;28;20038;-68
2022/10/30 04:43:07;;;;;;;13.23;6.93;;;22.90;62.60;;;;;;5035900;28;20055;-69
2022/10/30 04:45:34;;;;;;;9.82;5.72;;;23.00;62.60;;;;;;5038835;28;20034;-69
2022/10/30 04:48:07;;;;;;;10.18;5.50;;;22.90;62.50;;;;;;5009649;28;20585;-68
2022/10/30 04:50:34;;;;;;;10.57;6.07;;;22.90;62.50;;;;;;5023508;28;20040;-68
2022/10/30 04:53:06;;;;;;;13.50;6.25;;;22.90;62.40;;;;;;5049293;28;20137;-68
2022/10/30 04:55:32;;;;;;;12.70;6.00;;;23.00;62.40;;;;;;5050599;28;20032;-69
2022/10/30 04:58:01;;;;;;;12.65;6.72;;;22.90;62.30;;;;;;5033024;28;20112;-69
2022/10/30 05:00:30;;;;;;;11.48;6.20;;;22.90;62.30;;;;;;5026361;28;20025;-68
2022/10/30 05:03:02;;;;;;;14.38;6.75;;;23.00;62.40;;;;;;5030475;28;20037;-69
2022/10/30 05:05:29;;;;;;;13.80;6.85;;;22.80;62.30;;;;;;5029213;28;20057;-68
2022/10/30 05:07:56;;;;;;;13.70;6.82;;;22.80;62.30;;;;;;5030745;28;20156;-68
2022/10/30 05:10:22;;;;;;;10.50;5.65;;;22.90;62.40;;;;;;5014290;28;20045;-69
2022/10/30 05:12:52;;;;;;;10.35;6.53;;;22.90;62.40;;;;;;5028492;28;20069;-68
2022/10/30 05:15:18;;;;;;;11.93;6.28;;;22.90;62.40;;;;;;5015957;28;20044;-69
2022/10/30 05:17:44;;;;;;;12.32;6.60;;;22.70;62.40;;;;;;5012406;28;20029;-68
2022/10/30 05:20:10;;;;;;;11.07;6.10;;;22.70;62.40;;;;;;5013219;28;20057;-69
2022/10/30 05:22:36;;;;;;;10.15;6.40;;;22.80;62.40;;;;;;5029752;28;20069;-69
2022/10/30 05:25:03;;;;;;;12.63;6.65;;;22.90;62.50;;;;;;5031113;28;20584;-69
2022/10/30 05:27:29;;;;;;;15.70;6.78;;;22.80;62.50;;;;;;5029768;28;20171;-69
2022/10/30 05:29:55;;;;;;;13.13;6.25;;;22.80;62.50;;;;;;4996680;28;20167;-69
2022/10/30 05:32:21;;;;;;;15.20;7.00;;;22.80;62.50;;;;;;5030681;28;20054;-68
2022/10/30 05:34:48;;;;;;;12.25;6.13;;;22.80;62.40;;;;;;5015770;28;20733;-69
2022/10/30 05:37:19;;;;;;;9.70;6.15;;;22.80;62.40;;;;;;5032326;28;20073;-69
2022/10/30 05:39:45;;;;;;;15.68;7.00;;;22.70;62.30;;;;;;5031808;28;20030;-69
2022/10/30 05:42:23;;;;;;;9.05;6.38;;;22.80;62.30;;;;;;5032212;28;20065;-69
2022/10/30 05:44:49;;;;;;;10.27;6.60;;;22.80;62.30;;;;;;5031601;28;20033;-68
2022/10/30 05:47:16;;;;;;;9.70;6.38;;;22.90;62.40;;;;;;5066066;28;20104;-68
2022/10/30 05:49:46;;;;;;;17.73;7.32;;;22.80;62.20;;;;;;5032159;28;20467;-69
2022/10/30 05:52:16;;;;;;;13.30;7.55;;;22.80;62.00;;;;;;5047151;28;20064;-68
2022/10/30 05:54:42;;;;;;;9.27;6.03;;;23.00;61.50;;;;;;5032102;28;20044;-69
2022/10/30 05:57:14;;;;;;;14.05;5.85;;;22.90;61.10;;;;;;5031555;28;20072;-67
2022/10/30 05:59:40;;;;;;;6.38;4.28;;;23.00;59.20;;;;;;5030492;28;20132;-68
2022/10/30 06:02:07;;;;;;;8.32;5.40;;;22.80;56.30;;;;;;5029861;28;20029;-67
2022/10/30 06:04:33;;;;;;;7.47;5.60;;;23.00;55.90;;;;;;5015185;28;20437;-68
2022/10/30 06:07:01;;;;;;;6.90;4.40;;;23.10;56.40;;;;;;5032985;28;20065;-67
2022/10/30 06:09:30;;;;;;;8.23;4.47;;;23.10;55.60;;;;;;5030166;28;20049;-68
2022/10/30 06:12:14;;;;;;;5.80;4.43;;;23.20;56.20;;;;;;5032436;28;20533;-67
2022/10/30 06:14:58;;;;;;;9.65;5.25;;;23.40;60.70;;;;;;5029164;28;20053;-66
2022/10/30 06:17:24;;;;;;;33.58;9.13;;;23.90;59.40;;;;;;5030822;28;20422;-69
2022/10/30 06:19:59;;;;;;;9.95;5.43;;;23.80;57.60;;;;;;5032876;28;20124;-67
2022/10/30 06:23:00;;;;;;;9.02;5.65;;;23.90;58.30;;;;;;5048756;28;20103;-68
2022/10/30 06:25:35;;;;;;;7.53;5.78;;;24.20;54.40;;;;;;5048294;28;20045;-68
2022/10/30 06:28:20;;;;;;;11.63;6.70;;;24.20;53.10;;;;;;5047139;28;20550;-68
2022/10/30 06:30:46;;;;;;;9.82;7.30;;;24.10;52.60;;;;;;5031775;28;20044;-68
2022/10/30 06:33:12;;;;;;;10.75;8.05;;;24.10;52.40;;;;;;5049847;28;20556;-69
2022/10/30 06:35:43;;;;;;;11.85;7.78;;;24.10;52.50;;;;;;5029751;28;20041;-68
2022/10/30 06:38:10;;;;;;;15.65;8.00;;;23.90;52.20;;;;;;5049033;28;20049;-69
2022/10/30 06:40:37;;;;;;;7.15;4.07;;;24.10;51.80;;;;;;5047770;28;20036;-69
2022/10/30 06:43:26;;;;;;;14.20;7.30;;;24.10;51.40;;;;;;4994774;28;20050;-68
2022/10/30 06:45:57;;;;;;;11.25;7.20;;;24.20;57.60;;;;;;4999888;28;20042;-68
2022/10/30 06:48:24;;;;;;;11.30;7.22;;;24.10;58.10;;;;;;5000813;28;20037;-70
2022/10/30 06:50:56;;;;;;;12.50;7.28;;;24.10;58.40;;;;;;5017253;28;20120;-70
2022/10/30 06:53:23;;;;;;;15.02;7.45;;;24.10;61.40;;;;;;5001191;28;20128;-70
2022/10/30 06:55:59;;;;;;;13.07;7.70;;;24.20;61.70;;;;;;4994239;28;20060;-69
2022/10/30 06:58:54;;;;;;;18.10;7.65;;;24.00;61.80;;;;;;4926889;29;20098;-69
2022/10/30 07:01:33;;;;;;;20.80;8.02;;;24.00;61.10;;;;;;4954559;28;20043;-68
2022/10/30 07:04:19;;;;;;;16.40;7.53;;;23.90;60.90;;;;;;4949152;29;20039;-70
2022/10/30 07:06:45;;;;;;;13.38;7.43;;;23.90;61.10;;;;;;4934096;29;20051;-66
2022/10/30 07:09:11;;;;;;;12.00;7.57;;;23.90;61.90;;;;;;4918193;29;20045;-66
2022/10/30 07:11:41;;;;;;;16.08;8.45;;;24.00;63.40;;;;;;4949196;29;20486;-67
2022/10/30 07:14:18;;;;;;;19.30;8.25;;;23.90;63.50;;;;;;4934525;29;20051;-67
2022/10/30 07:16:56;;;;;;;16.20;7.97;;;23.90;63.80;;;;;;4946223;28;20037;-66
2022/10/30 07:19:22;;;;;;;15.48;6.82;;;24.00;64.00;;;;;;4914345;28;20102;-67
2022/10/30 07:21:48;;;;;;;14.82;7.25;;;24.00;64.00;;;;;;4961328;28;20067;-66
2022/10/30 07:24:16;;;;;;;14.43;7.13;;;24.00;63.70;;;;;;4934869;28;20074;-66
2022/10/30 07:27:02;;;;;;;13.23;6.72;;;24.00;63.20;;;;;;4902270;29;20475;-67
2022/10/30 07:29:51;;;;;;;14.70;7.13;;;24.10;63.60;;;;;;4872670;29;20570;-68
2022/10/30 07:32:20;;;;;;;14.27;7.10;;;24.00;63.80;;;;;;4871758;29;20148;-67
2022/10/30 07:34:52;;;;;;;11.85;7.25;;;24.20;64.60;;;;;;4879491;29;20041;-67
2022/10/30 07:37:47;;;;;;;14.88;6.13;;;24.20;64.40;;;;;;4877690;29;20041;-69
2022/10/30 07:40:15;;;;;;;12.85;5.45;;;24.20;64.10;;;;;;4876359;29;20067;-68
2022/10/30 07:43:05;;;;;;;10.50;5.78;;;24.30;64.80;;;;;;4895704;29;20032;-67
2022/10/30 07:45:51;;;;;;;10.38;5.60;;;24.40;65.10;;;;;;4910451;29;20047;-69
2022/10/30 07:48:23;;;;;;;10.45;4.47;;;24.40;64.90;;;;;;4888820;29;20040;-70
2022/10/30 07:51:14;;;;;;;15.68;5.72;;;24.40;64.70;;;;;;4908167;29;20104;-72
2022/10/30 07:53:40;;;;;;;7.65;5.03;;;24.40;64.60;;;;;;4903255;29;20103;-72
2022/10/30 07:56:08;;;;;;;12.88;5.03;;;24.60;64.70;;;;;;4888397;29;20051;-72
2022/10/30 07:59:04;;;;;;;7.32;4.70;;;24.40;64.40;;;;;;4912149;29;20075;-72
2022/10/30 08:02:03;;;;;;;13.27;5.78;;;24.50;64.70;;;;;;4855150;29;20065;-69
2022/10/30 08:04:43;;;;;;;10.80;5.57;;;24.60;64.60;;;;;;4838052;29;20120;-70
2022/10/30 08:07:33;;;;;;;12.70;5.10;;;24.70;64.50;;;;;;4898101;29;20054;-71
2022/10/30 08:09:59;;;;;;;10.77;5.82;;;24.50;64.20;;;;;;4912441;29;20058;-70
2022/10/30 08:12:26;;;;;;;8.80;4.20;;;24.60;64.00;;;;;;4915733;29;20054;-69
2022/10/30 08:14:52;;;;;;;11.25;6.13;;;24.70;63.90;;;;;;4911275;29;20503;-70
2022/10/30 08:17:20;;;;;;;11.70;5.22;;;24.70;63.60;;;;;;4935460;29;20098;-67
2022/10/30 08:19:46;;;;;;;14.13;7.00;;;24.60;63.30;;;;;;4937385;29;20051;-65
2022/10/30 08:22:12;;;;;;;12.32;4.75;;;24.80;59.90;;;;;;4920105;29;20055;-69
2022/10/30 08:24:39;;;;;;;10.23;4.50;;;24.80;61.50;;;;;;4919101;29;20187;-70
2022/10/30 08:27:05;;;;;;;9.85;5.13;;;24.70;61.30;;;;;;4919911;29;20150;-70
2022/10/30 08:29:33;;;;;;;10.75;4.65;;;24.70;60.00;;;;;;4926810;29;20158;-69
2022/10/30 08:32:00;;;;;;;13.68;4.93;;;24.70;58.50;;;;;;4928268;29;20745;-68
2022/10/30 08:34:44;;;;;;;8.55;5.10;;;24.80;58.30;;;;;;4934211;28;20282;-69
2022/10/30 08:37:11;;;;;;;13.00;5.32;;;24.80;56.60;;;;;;4969298;28;20512;-71
2022/10/30 08:39:37;;;;;;;9.73;5.50;;;24.70;54.50;;;;;;5047474;28;20025;-69
2022/10/30 08:42:33;;;;;;;19.55;6.20;;;24.80;55.90;;;;;;5026962;28;20528;-68
2022/10/30 08:45:01;;;;;;;12.23;5.35;;;24.80;56.10;;;;;;5019858;28;20164;-68
2022/10/30 08:47:45;;;;;;;8.65;5.88;;;24.70;54.50;;;;;;5016407;28;20046;-68
2022/10/30 08:50:12;;;;;;;14.10;6.95;;;24.60;54.00;;;;;;5017926;28;20127;-69
2022/10/30 08:52:38;;;;;;;12.43;5.20;;;24.60;54.30;;;;;;5001567;28;20042;-68
2022/10/30 08:55:06;;;;;;;14.38;6.97;;;24.70;54.80;;;;;;5011220;28;20038;-70
2022/10/30 08:57:36;;;;;;;7.57;5.82;;;24.50;53.70;;;;;;5012113;28;20044;-70
2022/10/30 09:00:06;;;;;;;8.80;5.90;;;24.50;53.80;;;;;;5014563;28;20835;-69
2022/10/30 09:02:52;;;;;;;6.97;3.17;;;24.50;53.60;;;;;;5020364;28;20028;-70
2022/10/30 09:05:37;;;;;;;7.85;6.13;;;24.30;57.20;;;;;;5012406;28;20066;-66
2022/10/30 09:08:31;;;;;;;11.23;5.72;;;24.40;54.80;;;;;;5026859;28;20041;-66
2022/10/30 09:11:10;;;;;;;11.52;5.15;;;24.50;55.40;;;;;;4998791;28;20195;-65
2022/10/30 09:13:37;;;;;;;8.55;5.00;;;24.40;57.90;;;;;;5017238;28;20045;-67
2022/10/30 09:16:05;;;;;;;11.20;6.03;;;24.30;55.70;;;;;;5022508;28;20038;-67
2022/10/30 09:18:34;;;;;;;8.65;4.90;;;24.40;55.70;;;;;;5034802;28;20075;-67
2022/10/30 09:21:00;;;;;;;16.40;7.70;;;24.30;56.60;;;;;;5036065;28;20075;-67
2022/10/30 09:23:26;;;;;;;10.88;4.93;;;24.30;57.00;;;;;;5047535;28;20087;-69
2022/10/30 09:26:05;;;;;;;9.32;4.78;;;24.40;60.60;;;;;;5029260;28;20040;-74
2022/10/30 09:28:48;;;;;;;13.35;5.22;;;24.40;59.70;;;;;;5018351;28;20474;-70
2022/10/30 09:31:43;;;;;;;8.40;4.68;;;24.50;60.50;;;;;;5018934;28;20077;-70
2022/10/30 09:34:14;;;;;;;6.63;3.58;;;24.40;59.70;;;;;;5007912;28;20108;-70
2022/10/30 09:36:45;;;;;;;6.03;3.53;;;24.50;59.70;;;;;;5007683;28;20034;-68
2022/10/30 09:39:12;;;;;;;14.73;4.97;;;24.50;60.60;;;;;;5018516;28;20053;-68
2022/10/30 09:41:53;;;;;;;3.92;3.47;;;24.50;59.90;;;;;;5027581;28;20482;-70
2022/10/30 09:44:38;;;;;;;8.43;4.72;;;24.50;60.30;;;;;;5017128;28;20056;-68
2022/10/30 09:47:23;;;;;;;12.07;5.40;;;24.60;59.00;;;;;;5005459;28;20045;-68
2022/10/30 09:50:09;;;;;;;10.52;6.05;;;24.60;59.30;;;;;;5007168;28;20069;-70
2022/10/30 09:52:38;;;;;;;13.35;5.40;;;24.50;56.80;;;;;;5021263;28;20077;-71
2022/10/30 09:55:25;;;;;;;11.15;4.78;;;24.60;54.00;;;;;;5013212;28;20033;-71
2022/10/30 09:58:20;;;;;;;10.45;5.45;;;24.60;54.80;;;;;;5012081;28;20042;-71
2022/10/30 10:00:55;;;;;;;11.35;5.80;;;24.70;52.10;;;;;;5004323;28;20030;-71
2022/10/30 10:03:54;;;;;;;7.03;4.15;;;24.80;51.30;;;;;;5011430;28;20164;-71
2022/10/30 10:06:42;;;;;;;8.70;4.75;;;24.70;53.10;;;;;;5013659;28;20036;-70
2022/10/30 10:09:42;;;;;;;8.85;4.63;;;24.70;53.00;;;;;;5048287;28;20041;-70
2022/10/30 10:12:41;;;;;;;5.18;4.32;;;24.80;53.90;;;;;;5047982;28;20086;-73
2022/10/30 10:15:34;;;;;;;11.60;5.85;;;24.80;55.10;;;;;;5048196;28;20108;-71
2022/10/30 10:18:03;;;;;;;10.93;5.25;;;24.80;51.50;;;;;;5029414;28;20041;-71
2022/10/30 10:20:36;;;;;;;12.65;5.07;;;24.80;51.50;;;;;;5038483;28;20533;-70
2022/10/30 10:23:17;;;;;;;9.15;4.53;;;24.80;54.10;;;;;;5049460;28;20061;-70
2022/10/30 10:25:51;;;;;;;13.50;5.25;;;24.70;52.60;;;;;;5029849;28;20038;-74
2022/10/30 10:28:29;;;;;;;9.13;3.17;;;24.80;51.50;;;;;;5037976;28;20052;-69
2022/10/30 10:31:25;;;;;;;8.20;3.65;;;24.80;57.30;;;;;;5030704;28;20056;-67
2022/10/30 10:34:12;;;;;;;7.40;3.95;;;24.80;57.70;;;;;;5004164;28;20459;-67
2022/10/30 10:36:54;;;;;;;10.32;4.85;;;24.90;58.20;;;;;;5006677;28;20037;-67
2022/10/30 10:39:29;;;;;;;8.90;3.47;;;24.70;53.90;;;;;;5003949;28;20044;-67
2022/10/30 10:42:22;;;;;;;5.93;3.10;;;24.80;56.90;;;;;;5010034;28;20030;-70
2022/10/30 10:45:14;;;;;;;9.65;5.10;;;24.80;54.00;;;;;;5008424;28;20480;-69
2022/10/30 10:48:04;;;;;;;10.32;3.72;;;25.00;51.50;;;;;;4992940;28;20483;-69
2022/10/30 10:50:32;;;;;;;9.15;4.78;;;24.80;54.40;;;;;;5009323;28;20041;-68
2022/10/30 10:53:17;;;;;;;7.40;4.05;;;24.80;50.30;;;;;;5009535;28;20065;-69
2022/10/30 10:55:48;;;;;;;8.02;4.57;;;24.80;51.10;;;;;;5009834;28;20537;-69
2022/10/30 10:58:33;;;;;;;10.00;4.65;;;24.70;49.80;;;;;;4991043;28;20172;-70
2022/10/30 11:00:59;;;;;;;1.10;1.10;;;24.70;52.60;;;;;;5009006;28;20411;-71
2022/10/30 11:03:58;;;;;;;5.05;2.15;;;24.80;54.30;;;;;;5005217;28;20048;-69
2022/10/30 11:06:31;;;;;;;9.65;4.55;;;24.70;57.80;;;;;;4973871;28;20065;-69
2022/10/30 11:09:20;;;;;;;3.72;2.70;;;24.90;60.00;;;;;;4980446;28;20519;-69
2022/10/30 11:11:51;;;;;;;4.78;2.83;;;25.00;61.70;;;;;;4985441;28;20569;-68
2022/10/30 11:14:23;;;;;;;1.55;1.45;;;25.00;62.70;;;;;;4983287;28;20038;-69
2022/10/30 11:17:07;;;;;;;6.15;3.25;;;25.10;58.70;;;;;;4975368;28;20511;-69
2022/10/30 11:19:33;;;;;;;14.77;6.03;;;25.10;57.40;;;;;;4975415;28;20460;-69
2022/10/30 11:22:00;;;;;;;8.73;4.53;;;25.00;51.90;;;;;;4989552;28;20156;-71
2022/10/30 11:24:34;;;;;;;11.07;4.25;;;25.10;52.90;;;;;;4989944;28;20043;-72
2022/10/30 11:27:36;;;;;;;9.38;4.53;;;25.00;52.20;;;;;;4987341;28;20068;-72
2022/10/30 11:30:05;;;;;;;10.90;4.70;;;25.00;50.50;;;;;;4959986;28;20077;-69
2022/10/30 11:32:33;;;;;;;6.88;4.38;;;25.20;51.00;;;;;;4953412;28;20083;-70
2022/10/30 11:35:07;;;;;;;8.40;4.82;;;25.00;53.00;;;;;;4960905;28;20094;-68
2022/10/30 11:37:35;;;;;;;9.85;5.07;;;25.10;52.00;;;;;;4950706;28;20413;-70
2022/10/30 11:40:10;;;;;;;6.47;3.17;;;25.20;51.40;;;;;;4950817;28;20109;-70
2022/10/30 11:42:48;;;;;;;7.30;4.78;;;25.30;51.50;;;;;;4961140;28;20118;-69
2022/10/30 11:45:24;;;;;;;10.65;4.28;;;25.30;50.10;;;;;;4987974;28;20057;-67
2022/10/30 11:47:51;;;;;;;8.75;4.53;;;25.30;50.20;;;;;;5002018;28;20554;-67
2022/10/30 11:50:22;;;;;;;9.77;3.70;;;25.30;49.90;;;;;;5005400;28;20058;-67
2022/10/30 11:53:11;;;;;;;7.05;4.05;;;25.30;48.00;;;;;;4990538;28;20038;-65
2022/10/30 11:55:39;;;;;;;8.38;3.92;;;25.30;51.80;;;;;;4995281;28;20116;-67
2022/10/30 11:58:09;;;;;;;6.75;3.33;;;25.20;52.70;;;;;;5004052;28;20475;-68
2022/10/30 12:00:39;;;;;;;8.05;3.80;;;25.30;54.20;;;;;;4991390;28;20367;-67
2022/10/30 12:03:32;;;;;;;6.70;3.80;;;25.30;53.90;;;;;;4996023;28;20073;-67
2022/10/30 12:06:26;;;;;;;8.25;4.28;;;25.30;55.20;;;;;;5026777;28;20053;-67
2022/10/30 12:09:21;;;;;;;12.32;3.75;;;25.30;54.40;;;;;;5025919;28;20061;-67
2022/10/30 12:11:47;;;;;;;5.10;3.40;;;25.40;56.00;;;;;;5032637;28;20500;-68
2022/10/30 12:14:22;;;;;;;4.95;3.58;;;25.30;55.60;;;;;;5043815;28;20033;-67
2022/10/30 12:16:51;;;;;;;5.22;4.10;;;25.20;56.20;;;;;;5042233;28;20029;-66
2022/10/30 12:19:20;;;;;;;9.00;5.32;;;25.20;54.40;;;;;;5051466;28;20673;-66
2022/10/30 12:21:48;;;;;;;7.43;4.30;;;25.30;55.50;;;;;;5057277;28;20457;-66
2022/10/30 12:24:31;;;;;;;10.32;4.75;;;25.20;56.10;;;;;;5066027;28;20037;-66
2022/10/30 12:27:02;;;;;;;7.38;4.57;;;25.20;55.30;;;;;;5051205;28;20041;-66
2022/10/30 12:29:41;;;;;;;10.57;4.85;;;25.30;56.30;;;;;;5041707;28;20429;-67
2022/10/30 12:32:13;;;;;;;6.72;4.28;;;25.20;55.90;;;;;;5051544;28;20045;-66
2022/10/30 12:34:52;;;;;;;5.22;4.15;;;25.30;59.80;;;;;;5039306;28;20116;-66
2022/10/30 12:37:37;;;;;;;15.57;6.70;;;25.30;56.40;;;;;;5035371;28;20025;-66
2022/10/30 12:40:10;;;;;;;8.88;3.90;;;25.40;53.60;;;;;;5052360;28;20028;-65
2022/10/30 12:42:44;;;;;;;10.65;4.78;;;25.50;49.80;;;;;;5052077;28;20029;-66
2022/10/30 12:45:19;;;;;;;8.95;5.35;;;25.40;50.80;;;;;;5039525;28;20033;-66
2022/10/30 12:47:59;;;;;;;10.07;4.53;;;25.30;55.20;;;;;;5037117;28;20026;-67
2022/10/30 12:50:31;;;;;;;10.95;4.70;;;25.30;55.90;;;;;;5098675;28;20056;-68
2022/10/30 12:53:18;;;;;;;7.57;4.13;;;25.30;55.60;;;;;;5052872;28;20036;-66
2022/10/30 12:55:49;;;;;;;7.32;4.68;;;25.20;54.90;;;;;;5064581;28;20124;-67
2022/10/30 12:58:43;;;;;;;11.65;4.38;;;25.20;54.20;;;;;;5034520;28;20045;-67
2022/10/30 13:01:34;;;;;;;9.10;4.30;;;25.00;56.10;;;;;;5033035;28;20033;-66
2022/10/30 13:04:13;;;;;;;7.15;3.97;;;25.00;56.00;;;;;;4967188;28;20156;-67
2022/10/30 13:06:53;;;;;;;8.57;3.70;;;25.10;57.10;;;;;;4974737;28;20141;-66
2022/10/30 13:09:47;;;;;;;6.68;4.05;;;25.10;57.50;;;;;;4991992;28;20057;-67
2022/10/30 13:12:21;;;;;;;7.18;3.90;;;25.10;57.60;;;;;;4978027;28;20416;-67
2022/10/30 13:14:58;;;;;;;6.32;3.55;;;25.00;57.70;;;;;;4983535;28;20117;-67